Time;durP1;ratioP1;P1;durP2;ratioP2;P2;SDS_P1;SDS_P2;PMS_P1;PMS_P2;Temp;Humidity;BMP_temperature;BMP_pressure;BME280_temperature;BME280_humidity;BME280_pressure;Samples;Min_cycle;Max_cycle;Signal;HPM_P1;HPM_P2
2022/03/13 00:00:47;;;;;;;3.05;1.95;;;15.30;83.10;;;;;;2027132;28;20171;-70
2022/03/13 00:01:46;;;;;;;4.55;2.72;;;15.30;82.80;;;;;;2018567;28;20582;-71
2022/03/13 00:02:45;;;;;;;3.75;2.90;;;15.30;82.80;;;;;;2020848;28;20240;-71
2022/03/13 00:03:45;;;;;;;4.57;2.92;;;15.30;82.90;;;;;;2020775;28;20191;-71
2022/03/13 00:04:46;;;;;;;4.75;2.92;;;15.30;83.10;;;;;;2020852;28;20507;-71
2022/03/13 00:05:48;;;;;;;4.45;2.47;;;15.40;83.30;;;;;;2018335;28;20219;-71
2022/03/13 00:06:48;;;;;;;4.25;2.88;;;15.30;83.30;;;;;;2020872;28;20183;-71
2022/03/13 00:07:48;;;;;;;3.45;2.33;;;15.30;83.90;;;;;;2020159;28;20245;-71
2022/03/13 00:08:49;;;;;;;3.53;2.40;;;15.30;84.90;;;;;;2020131;28;20176;-70
2022/03/13 00:09:51;;;;;;;5.15;2.35;;;15.30;85.50;;;;;;2020835;28;20267;-71
2022/03/13 00:11:05;;;;;;;3.20;2.33;;;15.30;87.00;;;;;;2020675;28;20604;-71
2022/03/13 00:12:08;;;;;;;3.03;2.30;;;15.20;90.40;;;;;;2020464;28;20218;-71
2022/03/13 00:13:14;;;;;;;3.42;2.53;;;15.30;85.30;;;;;;2020797;28;20274;-70
2022/03/13 00:14:13;;;;;;;3.28;2.70;;;15.30;81.50;;;;;;2020729;28;20172;-70
2022/03/13 00:15:14;;;;;;;6.32;3.22;;;15.20;81.60;;;;;;2020285;28;20370;-70
2022/03/13 00:16:14;;;;;;;3.08;2.15;;;15.30;82.00;;;;;;2020096;28;20634;-70
2022/03/13 00:17:16;;;;;;;3.15;2.40;;;15.30;81.90;;;;;;2020699;28;20160;-71
2022/03/13 00:18:15;;;;;;;3.20;2.58;;;15.30;81.70;;;;;;2020718;28;20175;-71
2022/03/13 00:19:14;;;;;;;6.22;2.72;;;15.30;81.50;;;;;;2015867;28;20237;-71
2022/03/13 00:20:12;;;;;;;2.70;2.40;;;15.30;81.60;;;;;;2016144;28;20271;-70
2022/03/13 00:21:14;;;;;;;4.80;2.40;;;15.30;81.60;;;;;;2020663;28;20250;-70
2022/03/13 00:22:14;;;;;;;4.43;3.38;;;15.30;81.90;;;;;;2020743;28;20635;-71
2022/03/13 00:23:12;;;;;;;3.75;2.75;;;15.30;82.20;;;;;;2020611;28;20297;-70
2022/03/13 00:24:13;;;;;;;3.60;2.70;;;15.30;82.30;;;;;;2016126;28;20679;-71
2022/03/13 00:25:14;;;;;;;2.92;2.50;;;15.30;82.50;;;;;;2016107;28;20358;-71
2022/03/13 00:26:15;;;;;;;4.00;2.60;;;15.30;83.60;;;;;;2020874;28;20172;-71
2022/03/13 00:27:13;;;;;;;3.20;2.33;;;15.30;84.20;;;;;;2020562;28;20250;-72
2022/03/13 00:28:12;;;;;;;4.80;2.90;;;15.30;84.50;;;;;;2020560;28;20237;-71
2022/03/13 00:29:10;;;;;;;2.70;2.43;;;15.30;84.20;;;;;;2020693;28;20179;-71
2022/03/13 00:30:10;;;;;;;3.83;2.73;;;15.20;84.50;;;;;;2020570;28;20171;-71
2022/03/13 00:31:09;;;;;;;4.50;2.55;;;15.30;86.40;;;;;;2016438;28;20234;-70
2022/03/13 00:32:10;;;;;;;4.83;3.03;;;15.20;89.70;;;;;;2015160;28;20176;-69
2022/03/13 00:33:09;;;;;;;5.65;2.75;;;15.30;85.20;;;;;;2024246;28;20252;-69
2022/03/13 00:34:08;;;;;;;3.73;2.73;;;15.20;83.40;;;;;;2018789;28;20176;-70
2022/03/13 00:35:06;;;;;;;5.60;3.17;;;15.20;84.20;;;;;;2020625;28;20452;-71
2022/03/13 00:36:07;;;;;;;4.03;2.63;;;;;;;;;;2019924;28;20206;-71
2022/03/13 00:37:06;;;;;;;3.10;2.80;;;;;;;;;;2020061;28;20175;-71
2022/03/13 00:38:06;;;;;;;6.37;4.10;;;;;;;;;;2020590;28;20271;-72
2022/03/13 00:39:05;;;;;;;3.65;2.80;;;15.00;91.40;;;;;;2020486;28;20465;-71
2022/03/13 00:40:05;;;;;;;4.65;2.65;;;15.20;81.60;;;;;;2020584;28;20211;-70
2022/03/13 00:41:04;;;;;;;2.92;2.20;;;15.30;82.90;;;;;;2019900;28;20680;-71
2022/03/13 00:42:05;;;;;;;3.50;2.47;;;15.20;85.20;;;;;;2020036;28;20171;-70
2022/03/13 00:43:04;;;;;;;3.25;2.50;;;15.20;85.70;;;;;;2014189;28;20203;-73
2022/03/13 00:44:04;;;;;;;4.90;2.78;;;;;;;;;;2017441;28;20172;-71
2022/03/13 00:45:02;;;;;;;3.35;2.58;;;15.10;87.60;;;;;;2020536;28;20601;-71
2022/03/13 00:46:01;;;;;;;3.93;2.77;;;15.20;84.00;;;;;;2020726;28;20209;-71
2022/03/13 00:47:01;;;;;;;2.53;2.13;;;15.20;86.90;;;;;;2020487;28;20224;-71
2022/03/13 00:47:59;;;;;;;4.22;2.50;;;15.20;86.90;;;;;;2019990;28;20606;-71
2022/03/13 00:48:58;;;;;;;3.17;2.40;;;15.20;82.40;;;;;;2020176;28;20187;-71
2022/03/13 00:49:57;;;;;;;4.40;3.07;;;15.20;83.80;;;;;;2020667;28;20176;-71
2022/03/13 00:50:55;;;;;;;4.17;2.63;;;15.20;85.20;;;;;;2020639;28;20211;-70
2022/03/13 00:51:56;;;;;;;4.80;2.40;;;15.20;84.20;;;;;;2020816;28;20528;-72
2022/03/13 00:52:56;;;;;;;3.78;2.47;;;15.20;85.00;;;;;;2020539;28;20766;-72
2022/03/13 00:53:54;;;;;;;9.68;2.80;;;15.20;86.20;;;;;;2020700;28;20630;-71
2022/03/13 00:54:53;;;;;;;4.00;2.57;;;15.20;84.50;;;;;;2020457;28;20246;-72
2022/03/13 00:55:51;;;;;;;4.20;2.83;;;15.20;86.10;;;;;;2020069;28;20597;-71
2022/03/13 00:56:55;;;;;;;3.83;2.50;;;15.10;90.80;;;;;;2020027;28;20634;-70
2022/03/13 00:57:57;;;;;;;4.43;3.17;;;;;;;;;;2020640;28;20157;-70
2022/03/13 00:59:01;;;;;;;2.90;2.60;;;;;;;;;;2020600;28;20585;-72
2022/03/13 01:00:00;;;;;;;3.60;2.30;;;;;;;;;;2020602;28;20221;-72
2022/03/13 01:01:02;;;;;;;3.50;2.50;;;;;;;;;;2020642;28;20171;-71
2022/03/13 01:02:01;;;;;;;3.78;2.80;;;15.10;89.40;;;;;;2020627;28;20777;-71
2022/03/13 01:02:59;;;;;;;4.87;3.30;;;15.20;89.50;;;;;;2020025;28;20200;-72
2022/03/13 01:03:58;;;;;;;5.20;2.83;;;15.20;85.10;;;;;;2012020;28;20182;-71
2022/03/13 01:04:56;;;;;;;4.27;2.90;;;15.20;85.80;;;;;;2019434;28;20258;-71
2022/03/13 01:05:55;;;;;;;5.47;3.30;;;15.20;83.30;;;;;;2020480;28;20180;-70
2022/03/13 01:06:54;;;;;;;4.47;2.80;;;15.20;83.40;;;;;;2020474;28;20210;-71
2022/03/13 01:07:56;;;;;;;4.37;2.30;;;15.20;84.80;;;;;;2020783;28;20207;-71
2022/03/13 01:08:55;;;;;;;3.17;2.58;;;15.20;85.50;;;;;;2020573;28;20218;-71
2022/03/13 01:09:53;;;;;;;7.30;2.90;;;15.20;85.90;;;;;;2020544;28;20198;-70
2022/03/13 01:10:53;;;;;;;4.47;2.50;;;15.20;86.60;;;;;;2020715;28;20240;-71
2022/03/13 01:11:52;;;;;;;6.97;2.78;;;15.20;84.50;;;;;;2020965;28;20184;-71
2022/03/13 01:12:51;;;;;;;3.30;2.23;;;15.30;85.10;;;;;;2020372;28;20199;-70
2022/03/13 01:13:51;;;;;;;3.97;2.65;;;15.20;87.00;;;;;;2020089;28;20262;-71
2022/03/13 01:14:49;;;;;;;6.22;2.85;;;15.20;86.60;;;;;;2020717;28;20207;-71
2022/03/13 01:15:49;;;;;;;3.67;2.57;;;15.20;85.70;;;;;;2020820;28;20524;-71
2022/03/13 01:16:48;;;;;;;3.33;2.25;;;15.20;86.50;;;;;;2020679;28;20167;-71
2022/03/13 01:17:47;;;;;;;3.33;2.17;;;15.20;86.30;;;;;;2020543;28;20183;-71
2022/03/13 01:18:55;;;;;;;3.88;2.53;;;15.10;86.70;;;;;;2020436;28;20672;-71
2022/03/13 01:19:54;;;;;;;3.00;2.30;;;15.20;86.80;;;;;;2020657;28;20532;-70
2022/03/13 01:20:52;;;;;;;6.80;2.93;;;15.20;87.60;;;;;;2020388;28;20229;-71
2022/03/13 01:21:51;;;;;;;3.30;2.43;;;15.10;86.60;;;;;;2019840;28;20604;-71
2022/03/13 01:22:50;;;;;;;5.30;2.80;;;15.10;86.50;;;;;;2019660;28;20195;-71
2022/03/13 01:24:03;;;;;;;5.00;2.75;;;15.10;86.90;;;;;;2019939;28;20233;-71
2022/03/13 01:25:01;;;;;;;3.83;2.45;;;15.10;86.20;;;;;;2020579;28;20160;-71
2022/03/13 01:26:22;;;;;;;3.53;2.87;;;15.10;85.60;;;;;;2020533;28;20206;-71
2022/03/13 01:27:21;;;;;;;3.42;2.42;;;15.20;85.30;;;;;;2020620;28;20254;-72
2022/03/13 01:28:21;;;;;;;3.55;2.60;;;15.10;85.70;;;;;;2020487;28;20203;-72
2022/03/13 01:29:20;;;;;;;3.00;2.13;;;15.10;86.30;;;;;;2020447;28;20281;-71
2022/03/13 01:30:18;;;;;;;4.27;2.67;;;15.10;87.10;;;;;;2019816;28;20192;-72
2022/03/13 01:31:20;;;;;;;3.80;2.67;;;15.20;88.20;;;;;;2019982;28;20263;-71
2022/03/13 01:32:20;;;;;;;4.68;3.08;;;15.20;86.60;;;;;;2020771;28;20176;-72
2022/03/13 01:33:19;;;;;;;3.60;2.40;;;15.20;85.50;;;;;;2020528;28;20282;-72
2022/03/13 01:34:38;;;;;;;4.82;3.00;;;15.10;86.50;;;;;;2020612;28;20179;-71
2022/03/13 01:35:36;;;;;;;5.47;3.33;;;15.10;88.00;;;;;;2020573;28;20144;-70
2022/03/13 01:36:36;;;;;;;4.60;2.63;;;;;;;;;;2020609;28;20180;-71
2022/03/13 01:37:42;;;;;;;4.07;2.40;;;;;;;;;;2020502;28;20637;-71
2022/03/13 01:38:42;;;;;;;4.00;2.28;;;;;;;;;;2019988;28;20148;-71
2022/03/13 01:39:42;;;;;;;3.20;2.75;;;;;;;;;;2020121;28;20578;-72
2022/03/13 01:40:41;;;;;;;5.38;3.08;;;15.00;89.50;;;;;;2020371;28;20203;-71
2022/03/13 01:41:43;;;;;;;3.57;2.60;;;;;;;;;;2019707;28;20172;-71
2022/03/13 01:42:44;;;;;;;3.88;2.63;;;;;;;;;;2019701;28;20210;-72
2022/03/13 01:43:43;;;;;;;7.10;3.03;;;;;;;;;;2020540;28;20160;-71
2022/03/13 01:44:43;;;;;;;3.53;2.72;;;;;;;;;;2020632;28;20684;-72
2022/03/13 01:45:42;;;;;;;4.75;2.88;;;15.00;88.50;;;;;;2020283;28;20183;-71
2022/03/13 01:46:41;;;;;;;2.67;2.23;;;15.10;86.00;;;;;;2020355;28;20299;-72
2022/03/13 01:47:41;;;;;;;3.55;2.55;;;15.10;86.10;;;;;;2020463;28;20160;-71
2022/03/13 01:49:04;;;;;;;3.25;2.75;;;15.00;88.40;;;;;;2020397;28;20168;-71
2022/03/13 01:50:09;;;;;;;5.80;3.38;;;;;;;;;;2020427;28;20513;-71
2022/03/13 01:51:07;;;;;;;4.30;2.58;;;14.90;89.20;;;;;;2020442;28;20163;-72
2022/03/13 01:52:08;;;;;;;3.60;2.50;;;15.00;85.60;;;;;;2020781;28;20180;-70
2022/03/13 01:53:08;;;;;;;5.65;2.40;;;15.10;84.60;;;;;;2020527;28;20192;-72
2022/03/13 01:54:12;;;;;;;4.32;3.08;;;15.10;84.60;;;;;;2020444;28;20172;-71
2022/03/13 01:55:12;;;;;;;7.22;3.20;;;;;;;;;;2020317;28;20223;-72
2022/03/13 01:56:11;;;;;;;3.28;2.92;;;;;;;;;;2020397;28;20172;-71
2022/03/13 01:57:14;;;;;;;5.65;3.00;;;15.00;87.50;;;;;;2020657;28;20218;-72
2022/03/13 01:58:13;;;;;;;3.83;2.85;;;15.10;89.00;;;;;;2020761;28;20164;-70
2022/03/13 01:59:14;;;;;;;3.97;2.60;;;15.10;89.20;;;;;;2020435;28;20172;-70
2022/03/13 02:00:14;;;;;;;3.65;2.72;;;15.10;89.10;;;;;;2020229;28;20176;-71
2022/03/13 02:01:14;;;;;;;4.10;2.92;;;;;;;;;;2020185;28;20211;-70
2022/03/13 02:02:13;;;;;;;7.53;2.88;;;14.90;89.50;;;;;;2020928;28;20626;-71
2022/03/13 02:03:15;;;;;;;3.65;2.58;;;;;;;;;;2020944;28;20202;-71
2022/03/13 02:04:17;;;;;;;4.88;2.83;;;;;;;;;;2021096;28;20171;-72
2022/03/13 02:05:29;;;;;;;3.20;2.50;;;;;;;;;;2024235;28;20172;-71
2022/03/13 02:06:29;;;;;;;5.57;2.80;;;;;;;;;;2025748;28;20164;-71
2022/03/13 02:07:30;;;;;;;4.65;3.00;;;14.90;90.30;;;;;;2025994;28;20198;-70
2022/03/13 02:08:34;;;;;;;4.30;2.75;;;14.90;89.80;;;;;;2024798;28;20642;-71
2022/03/13 02:09:34;;;;;;;7.75;3.20;;;;;;;;;;2021083;28;20249;-71
2022/03/13 02:10:34;;;;;;;5.22;3.17;;;;;;;;;;2020503;28;20179;-71
2022/03/13 02:11:40;;;;;;;3.28;2.35;;;;;;;;;;2020460;28;20175;-71
2022/03/13 02:12:40;;;;;;;3.47;2.55;;;;;;;;;;2021656;28;20155;-71
2022/03/13 02:13:40;;;;;;;3.90;2.80;;;;;;;;;;2022936;28;20203;-71
2022/03/13 02:14:39;;;;;;;3.63;2.97;;;;;;;;;;2022140;28;20176;-71
2022/03/13 02:15:38;;;;;;;3.70;2.95;;;;;;;;;;2022320;28;20561;-71
2022/03/13 02:16:37;;;;;;;5.50;3.33;;;;;;;;;;2022834;28;20172;-72
2022/03/13 02:17:36;;;;;;;2.90;2.53;;;14.90;92.40;;;;;;2022367;28;20172;-71
2022/03/13 02:18:39;;;;;;;3.17;2.23;;;;;;;;;;2021822;28;20220;-71
2022/03/13 02:19:38;;;;;;;4.70;2.60;;;14.90;88.60;;;;;;2021081;28;20160;-71
2022/03/13 02:20:43;;;;;;;4.83;2.50;;;15.00;88.20;;;;;;2027229;28;20168;-71
2022/03/13 02:21:48;;;;;;;4.63;2.40;;;15.00;87.50;;;;;;2029796;28;20179;-72
2022/03/13 02:22:47;;;;;;;3.35;2.60;;;15.10;87.70;;;;;;2029495;28;20195;-71
2022/03/13 02:23:45;;;;;;;3.03;2.37;;;15.00;88.60;;;;;;2029558;28;20192;-70
2022/03/13 02:24:49;;;;;;;5.30;2.93;;;15.00;87.10;;;;;;2029966;28;20430;-70
2022/03/13 02:25:53;;;;;;;3.97;2.63;;;15.00;88.10;;;;;;2029252;28;20199;-70
2022/03/13 02:27:11;;;;;;;3.58;2.53;;;;;;;;;;2026865;28;20188;-70
2022/03/13 02:28:11;;;;;;;5.25;2.50;;;;;;;;;;2030029;28;20148;-70
2022/03/13 02:29:16;;;;;;;3.58;2.70;;;;;;;;;;2030012;28;20176;-70
2022/03/13 02:30:20;;;;;;;5.10;2.72;;;;;;;;;;2029644;28;20186;-72
2022/03/13 02:31:23;;;;;;;4.57;2.72;;;;;;;;;;2029519;28;20199;-71
2022/03/13 02:32:21;;;;;;;3.72;2.90;;;14.90;90.40;;;;;;2029537;28;20212;-71
2022/03/13 02:33:22;;;;;;;5.13;2.87;;;;;;;;;;2029881;28;20204;-71
2022/03/13 02:34:23;;;;;;;3.85;2.45;;;14.80;90.30;;;;;;2028669;28;20247;-71
2022/03/13 02:35:24;;;;;;;4.55;2.70;;;;;;;;;;2030754;28;20219;-70
2022/03/13 02:36:24;;;;;;;3.72;2.55;;;;;;;;;;2028271;28;20191;-70
2022/03/13 02:37:41;;;;;;;3.50;2.75;;;;;;;;;;2031213;28;20159;-71
2022/03/13 02:38:41;;;;;;;2.72;2.40;;;;;;;;;;2030567;28;20167;-70
2022/03/13 02:39:40;;;;;;;6.85;2.80;;;;;;;;;;2030789;28;20168;-70
2022/03/13 02:40:38;;;;;;;4.00;2.70;;;;;;;;;;2030869;28;20212;-71
2022/03/13 02:41:40;;;;;;;5.60;3.20;;;;;;;;;;2030878;28;20387;-70
2022/03/13 02:42:39;;;;;;;3.97;2.65;;;;;;;;;;2027631;28;20402;-70
2022/03/13 02:43:38;;;;;;;4.87;2.70;;;;;;;;;;2022568;28;20206;-71
2022/03/13 02:44:37;;;;;;;4.07;2.60;;;;;;;;;;2022428;28;20409;-72
2022/03/13 02:45:39;;;;;;;5.38;2.75;;;14.80;91.20;;;;;;2022411;28;20432;-69
2022/03/13 02:46:46;;;;;;;5.78;2.70;;;15.00;88.70;;;;;;2023747;28;20211;-70
2022/03/13 02:47:44;;;;;;;4.35;2.80;;;14.90;88.70;;;;;;2022075;28;20642;-69
2022/03/13 02:48:44;;;;;;;5.10;2.47;;;;;;;;;;2022696;28;20184;-70
2022/03/13 02:49:42;;;;;;;5.35;3.17;;;14.90;88.90;;;;;;2027958;28;20167;-71
2022/03/13 02:50:41;;;;;;;5.27;3.27;;;15.00;88.40;;;;;;2029679;28;20172;-71
2022/03/13 02:51:41;;;;;;;3.30;3.00;;;14.90;87.70;;;;;;2031241;28;20425;-70
2022/03/13 02:52:41;;;;;;;3.67;2.65;;;15.00;88.80;;;;;;2030960;28;20177;-71
2022/03/13 02:53:40;;;;;;;2.95;2.45;;;14.90;88.80;;;;;;2030423;28;20172;-71
2022/03/13 02:54:38;;;;;;;3.20;2.47;;;14.90;88.50;;;;;;2030848;28;20212;-70
2022/03/13 02:55:37;;;;;;;3.10;2.60;;;14.90;86.40;;;;;;2030783;28;20461;-70
2022/03/13 02:56:35;;;;;;;5.13;2.80;;;14.90;86.40;;;;;;2030032;28;20172;-70
2022/03/13 02:57:35;;;;;;;4.30;3.10;;;14.90;87.60;;;;;;2030094;28;20200;-70
2022/03/13 02:58:35;;;;;;;3.42;2.70;;;;;;;;;;2029818;28;20160;-69
2022/03/13 02:59:36;;;;;;;2.95;2.50;;;14.80;90.00;;;;;;2028024;28;20191;-71
2022/03/13 03:00:42;;;;;;;3.92;2.78;;;14.90;88.10;;;;;;2028358;28;20176;-71
2022/03/13 03:01:43;;;;;;;5.55;2.92;;;;;;;;;;2030168;28;20172;-70
2022/03/13 03:02:42;;;;;;;3.47;2.90;;;14.90;87.90;;;;;;2029809;28;20172;-71
2022/03/13 03:03:41;;;;;;;4.93;3.20;;;14.90;87.90;;;;;;2030205;28;20172;-71
2022/03/13 03:04:44;;;;;;;3.47;2.40;;;14.90;87.20;;;;;;2030114;28;20202;-70
2022/03/13 03:05:43;;;;;;;3.92;2.60;;;14.90;86.70;;;;;;2030298;28;20161;-70
2022/03/13 03:06:51;;;;;;;3.30;2.30;;;14.90;87.30;;;;;;2030853;28;20176;-70
2022/03/13 03:07:53;;;;;;;3.28;2.50;;;14.80;89.30;;;;;;2030799;28;20163;-70
2022/03/13 03:08:51;;;;;;;3.67;2.70;;;14.90;86.80;;;;;;2030267;28;20297;-70
2022/03/13 03:09:50;;;;;;;4.40;2.50;;;14.90;87.00;;;;;;2030526;28;20180;-70
2022/03/13 03:10:48;;;;;;;4.53;3.13;;;14.90;88.50;;;;;;2030752;28;20179;-70
2022/03/13 03:11:47;;;;;;;2.90;2.30;;;14.90;86.40;;;;;;2030888;28;20225;-70
2022/03/13 03:12:48;;;;;;;3.80;2.70;;;;;;;;;;2030390;28;20200;-70
2022/03/13 03:13:48;;;;;;;7.00;2.60;;;;;;;;;;2030608;28;20255;-71
2022/03/13 03:14:48;;;;;;;4.07;2.40;;;;;;;;;;2030705;28;20176;-71
2022/03/13 03:15:46;;;;;;;3.63;2.75;;;14.80;88.10;;;;;;2030767;28;20199;-70
2022/03/13 03:16:48;;;;;;;3.83;2.50;;;;;;;;;;2030533;28;20179;-71
2022/03/13 03:17:48;;;;;;;4.00;2.90;;;;;;;;;;2030382;28;20175;-70
2022/03/13 03:18:49;;;;;;;3.75;2.75;;;;;;;;;;2030362;28;20171;-70
2022/03/13 03:19:49;;;;;;;3.47;2.80;;;;;;;;;;2030555;28;20168;-70
2022/03/13 03:20:48;;;;;;;3.78;3.15;;;14.80;88.40;;;;;;2030628;28;20193;-70
2022/03/13 03:21:48;;;;;;;3.23;2.57;;;14.70;89.20;;;;;;2030684;28;20186;-70
2022/03/13 03:22:49;;;;;;;3.78;2.75;;;14.80;87.80;;;;;;2030378;28;20179;-70
2022/03/13 03:23:48;;;;;;;5.22;2.50;;;14.80;88.70;;;;;;2030268;28;20179;-69
2022/03/13 03:24:49;;;;;;;3.40;2.60;;;14.80;88.00;;;;;;2030643;28;20190;-70
2022/03/13 03:25:48;;;;;;;2.88;2.47;;;14.90;87.80;;;;;;2030592;28;20156;-69
2022/03/13 03:26:47;;;;;;;4.63;3.13;;;14.80;88.00;;;;;;2030406;28;20214;-70
2022/03/13 03:27:45;;;;;;;4.67;2.60;;;14.80;84.90;;;;;;2030254;28;20209;-70
2022/03/13 03:28:44;;;;;;;7.60;3.10;;;14.80;84.60;;;;;;2030359;28;20418;-70
2022/03/13 03:29:43;;;;;;;4.57;2.78;;;14.80;84.20;;;;;;2030562;28;20171;-70
2022/03/13 03:30:42;;;;;;;3.37;2.80;;;14.80;84.50;;;;;;2030477;28;20187;-70
2022/03/13 03:31:43;;;;;;;4.60;2.80;;;14.80;85.50;;;;;;2027590;28;20170;-71
2022/03/13 03:32:44;;;;;;;2.50;2.30;;;14.70;89.40;;;;;;2021953;28;20662;-71
2022/03/13 03:33:42;;;;;;;4.35;3.00;;;14.80;86.90;;;;;;2024730;28;20204;-71
2022/03/13 03:34:41;;;;;;;4.23;3.27;;;14.80;87.30;;;;;;2030417;28;20186;-70
2022/03/13 03:35:39;;;;;;;4.00;2.60;;;14.90;85.70;;;;;;2030234;28;20488;-71
2022/03/13 03:36:46;;;;;;;4.77;3.00;;;14.90;86.20;;;;;;2030323;28;20186;-70
2022/03/13 03:37:46;;;;;;;3.28;2.40;;;14.90;86.10;;;;;;2030703;28;20160;-71
2022/03/13 03:38:44;;;;;;;4.32;2.78;;;14.90;84.50;;;;;;2030329;28;20183;-71
2022/03/13 03:39:43;;;;;;;3.70;2.70;;;14.80;86.60;;;;;;2029939;28;20190;-71
2022/03/13 03:40:41;;;;;;;4.20;3.17;;;14.90;85.90;;;;;;2030553;28;20168;-70
2022/03/13 03:41:42;;;;;;;3.80;2.50;;;14.90;86.60;;;;;;2030317;28;20209;-70
2022/03/13 03:42:43;;;;;;;3.85;3.10;;;14.80;85.80;;;;;;2030053;28;20159;-72
2022/03/13 03:43:42;;;;;;;4.35;2.80;;;14.90;86.90;;;;;;2030211;28;20160;-69
2022/03/13 03:44:41;;;;;;;3.33;2.90;;;14.80;85.90;;;;;;2021849;28;20183;-70
2022/03/13 03:45:40;;;;;;;4.03;2.73;;;14.80;88.30;;;;;;2022113;28;20173;-70
2022/03/13 03:46:41;;;;;;;4.97;3.10;;;14.90;87.70;;;;;;2028933;28;20164;-70
2022/03/13 03:47:39;;;;;;;3.58;3.05;;;14.80;87.10;;;;;;2030197;28;20199;-71
2022/03/13 03:48:38;;;;;;;4.47;2.60;;;14.80;87.80;;;;;;2030093;28;20179;-69
2022/03/13 03:49:37;;;;;;;4.57;3.30;;;14.80;87.20;;;;;;2030439;28;20167;-71
2022/03/13 03:50:36;;;;;;;3.55;2.92;;;14.80;86.10;;;;;;2030021;28;20203;-68
2022/03/13 03:51:35;;;;;;;4.77;2.77;;;14.80;87.60;;;;;;2029811;28;20183;-71
2022/03/13 03:52:35;;;;;;;4.97;2.78;;;14.80;87.00;;;;;;2045641;28;20202;-70
2022/03/13 03:53:36;;;;;;;3.20;2.60;;;14.80;86.80;;;;;;2046114;28;20162;-70
2022/03/13 03:54:36;;;;;;;4.00;3.30;;;14.80;86.40;;;;;;2030167;28;20175;-70
2022/03/13 03:55:35;;;;;;;4.40;3.03;;;14.90;87.40;;;;;;2029737;28;20187;-69
2022/03/13 03:56:34;;;;;;;5.30;2.50;;;14.80;86.90;;;;;;2029868;28;20168;-70
2022/03/13 03:57:33;;;;;;;4.35;3.33;;;14.90;86.30;;;;;;2030165;28;20198;-71
2022/03/13 03:58:31;;;;;;;3.60;2.70;;;14.80;87.20;;;;;;2029521;28;20172;-71
2022/03/13 03:59:30;;;;;;;4.77;2.77;;;14.80;85.90;;;;;;2029398;28;20418;-70
2022/03/13 04:00:29;;;;;;;4.80;2.60;;;14.90;86.80;;;;;;2029590;28;20191;-69
2022/03/13 04:01:37;;;;;;;7.25;3.75;;;14.80;86.80;;;;;;2029903;28;20548;-71
2022/03/13 04:02:37;;;;;;;3.90;2.58;;;14.80;85.60;;;;;;2029438;28;20164;-70
2022/03/13 04:03:35;;;;;;;3.05;2.45;;;14.80;85.30;;;;;;2029133;28;20160;-70
2022/03/13 04:04:35;;;;;;;4.33;3.10;;;14.80;87.30;;;;;;2029670;28;20156;-70
2022/03/13 04:05:34;;;;;;;3.97;2.92;;;14.80;87.20;;;;;;2029393;28;20217;-70
2022/03/13 04:06:34;;;;;;;2.80;2.17;;;14.80;86.40;;;;;;2029341;28;20189;-70
2022/03/13 04:07:32;;;;;;;3.33;2.67;;;14.80;87.20;;;;;;2029732;28;20395;-71
2022/03/13 04:08:31;;;;;;;4.90;2.93;;;14.70;86.70;;;;;;2029307;28;20245;-69
2022/03/13 04:09:29;;;;;;;3.60;2.63;;;14.80;87.00;;;;;;2029559;28;20270;-70
2022/03/13 04:10:27;;;;;;;3.63;3.33;;;14.80;86.90;;;;;;2029608;28;20214;-71
2022/03/13 04:11:26;;;;;;;4.60;3.40;;;14.80;87.10;;;;;;2029092;28;20176;-70
2022/03/13 04:12:28;;;;;;;3.72;2.90;;;14.80;86.30;;;;;;2029541;28;20643;-71
2022/03/13 04:13:28;;;;;;;4.05;2.78;;;14.90;86.90;;;;;;2026304;28;20168;-71
2022/03/13 04:14:27;;;;;;;4.90;3.15;;;14.70;86.50;;;;;;2020871;28;20518;-71
2022/03/13 04:15:25;;;;;;;4.50;2.90;;;14.80;86.80;;;;;;2020648;28;20181;-71
2022/03/13 04:16:24;;;;;;;3.97;2.40;;;14.70;87.20;;;;;;2020817;28;20255;-71
2022/03/13 04:17:22;;;;;;;3.97;2.80;;;14.70;87.60;;;;;;2020802;28;20672;-72
2022/03/13 04:18:21;;;;;;;5.47;3.07;;;14.70;88.30;;;;;;2020718;28;20182;-71
2022/03/13 04:19:22;;;;;;;5.82;3.20;;;14.80;87.20;;;;;;2020711;28;20192;-71
2022/03/13 04:20:22;;;;;;;5.22;3.25;;;14.80;87.10;;;;;;2020876;28;20175;-71
2022/03/13 04:21:22;;;;;;;5.30;3.07;;;14.70;85.50;;;;;;2020830;28;20609;-71
2022/03/13 04:22:22;;;;;;;4.47;3.45;;;14.70;86.10;;;;;;2020347;28;20163;-71
2022/03/13 04:23:22;;;;;;;3.85;3.20;;;14.70;88.90;;;;;;2020102;28;20199;-71
2022/03/13 04:24:22;;;;;;;4.80;3.00;;;14.70;84.80;;;;;;2020857;28;20218;-72
2022/03/13 04:25:20;;;;;;;2.80;2.50;;;14.80;82.10;;;;;;2020754;28;20199;-71
2022/03/13 04:26:24;;;;;;;5.87;3.20;;;14.80;84.40;;;;;;2020844;28;20649;-71
2022/03/13 04:27:23;;;;;;;4.80;2.97;;;14.70;83.30;;;;;;2020887;28;20262;-71
2022/03/13 04:28:22;;;;;;;3.93;2.87;;;14.70;83.30;;;;;;2020871;28;20203;-71
2022/03/13 04:29:23;;;;;;;4.40;3.33;;;14.70;82.80;;;;;;2020047;28;20184;-71
2022/03/13 04:30:23;;;;;;;5.07;2.97;;;14.70;84.10;;;;;;2020163;28;20172;-72
2022/03/13 04:31:22;;;;;;;3.90;3.10;;;14.60;81.80;;;;;;2020739;28;20175;-71
2022/03/13 04:32:22;;;;;;;4.23;2.73;;;14.60;82.60;;;;;;2020818;28;20234;-71
2022/03/13 04:33:22;;;;;;;5.55;3.42;;;14.70;82.10;;;;;;2020273;28;20188;-71
2022/03/13 04:34:22;;;;;;;3.47;2.67;;;14.70;82.00;;;;;;2020214;28;20245;-71
2022/03/13 04:35:20;;;;;;;4.47;3.22;;;14.70;83.00;;;;;;2020835;28;20180;-71
2022/03/13 04:36:21;;;;;;;4.23;2.80;;;14.70;83.40;;;;;;2020409;28;20306;-71
2022/03/13 04:37:20;;;;;;;6.78;3.42;;;14.70;82.00;;;;;;2020399;28;20627;-71
2022/03/13 04:38:19;;;;;;;5.43;3.30;;;14.70;83.00;;;;;;2021027;28;20194;-71
2022/03/13 04:39:17;;;;;;;3.97;2.97;;;14.80;83.40;;;;;;2020923;28;20171;-71
2022/03/13 04:40:16;;;;;;;2.57;2.23;;;14.80;81.80;;;;;;2021021;28;20200;-71
2022/03/13 04:41:15;;;;;;;6.13;3.10;;;14.80;84.50;;;;;;2020401;28;20175;-71
2022/03/13 04:42:13;;;;;;;4.30;3.37;;;14.80;84.00;;;;;;2020325;28;20175;-71
2022/03/13 04:43:12;;;;;;;4.90;2.90;;;14.80;83.00;;;;;;2020823;28;20192;-71
2022/03/13 04:44:14;;;;;;;4.80;2.90;;;14.80;83.00;;;;;;2020855;28;20176;-71
2022/03/13 04:45:13;;;;;;;3.67;3.10;;;14.70;82.00;;;;;;2023496;28;20170;-70
2022/03/13 04:46:13;;;;;;;4.50;3.10;;;14.60;81.40;;;;;;2030360;28;20198;-71
2022/03/13 04:47:13;;;;;;;6.13;2.97;;;14.70;83.50;;;;;;2030078;28;20227;-71
2022/03/13 04:48:12;;;;;;;3.23;2.30;;;14.70;81.10;;;;;;2030164;28;20173;-71
2022/03/13 04:49:12;;;;;;;4.90;2.97;;;14.70;82.70;;;;;;2028681;28;20211;-71
2022/03/13 04:50:10;;;;;;;3.40;2.60;;;14.70;83.10;;;;;;2020649;28;20421;-72
2022/03/13 04:51:09;;;;;;;4.70;3.07;;;14.70;82.30;;;;;;2020731;28;20258;-71
2022/03/13 04:52:08;;;;;;;4.27;3.00;;;14.70;81.90;;;;;;2020925;28;20422;-71
2022/03/13 04:53:07;;;;;;;5.10;3.47;;;14.70;82.20;;;;;;2020739;28;20552;-71
2022/03/13 04:54:07;;;;;;;4.80;3.78;;;14.70;82.10;;;;;;2020671;28;20176;-70
2022/03/13 04:55:10;;;;;;;3.58;2.85;;;14.70;82.70;;;;;;2020782;28;20215;-70
2022/03/13 04:56:09;;;;;;;4.88;3.25;;;14.70;81.20;;;;;;2020705;28;20643;-70
2022/03/13 04:57:09;;;;;;;4.40;3.20;;;14.70;81.20;;;;;;2020643;28;20298;-70
2022/03/13 04:58:08;;;;;;;5.55;3.90;;;14.70;81.60;;;;;;2020505;28;20262;-71
2022/03/13 04:59:07;;;;;;;4.78;2.92;;;14.60;81.10;;;;;;2020551;28;20251;-70
2022/03/13 05:00:06;;;;;;;3.90;2.70;;;14.70;82.60;;;;;;2020063;28;20544;-70
2022/03/13 05:01:05;;;;;;;5.85;3.00;;;14.70;81.40;;;;;;2011995;28;20871;-70
2022/03/13 05:02:04;;;;;;;5.80;3.27;;;14.80;81.80;;;;;;2019681;28;20191;-71
2022/03/13 05:03:02;;;;;;;3.65;2.60;;;14.70;81.00;;;;;;2020074;28;20274;-70
2022/03/13 05:04:05;;;;;;;3.90;2.87;;;14.60;80.70;;;;;;2020547;28;20202;-70
2022/03/13 05:05:04;;;;;;;3.42;2.90;;;14.70;81.50;;;;;;2020732;28;20666;-70
2022/03/13 05:06:05;;;;;;;6.85;3.70;;;14.70;79.80;;;;;;2020685;28;20230;-70
2022/03/13 05:07:08;;;;;;;3.20;2.88;;;14.70;79.10;;;;;;2020740;28;20184;-72
2022/03/13 05:08:14;;;;;;;5.43;2.90;;;14.60;78.90;;;;;;2020738;28;20199;-71
2022/03/13 05:09:13;;;;;;;4.25;3.10;;;14.70;79.00;;;;;;2019863;28;20186;-70
2022/03/13 05:10:11;;;;;;;4.87;3.03;;;14.70;79.30;;;;;;2019948;28;20559;-71
2022/03/13 05:11:11;;;;;;;3.80;2.60;;;14.70;78.80;;;;;;2020628;28;20234;-70
2022/03/13 05:12:10;;;;;;;4.00;3.20;;;14.70;78.60;;;;;;2020536;28;20175;-71
2022/03/13 05:13:11;;;;;;;3.45;2.80;;;14.60;79.20;;;;;;2020547;28;20218;-71
2022/03/13 05:14:10;;;;;;;3.90;2.88;;;14.70;79.10;;;;;;2019831;28;20252;-71
2022/03/13 05:15:09;;;;;;;4.32;3.10;;;14.70;79.50;;;;;;2019752;28;20267;-71
2022/03/13 05:16:08;;;;;;;5.43;2.93;;;14.70;78.90;;;;;;2020607;28;20686;-70
2022/03/13 05:17:06;;;;;;;4.90;3.40;;;14.70;79.80;;;;;;2020591;28;20411;-70
2022/03/13 05:18:07;;;;;;;3.83;2.47;;;14.70;79.80;;;;;;2020431;28;20167;-71
2022/03/13 05:19:06;;;;;;;4.15;3.05;;;14.70;80.80;;;;;;2019782;28;20287;-70
2022/03/13 05:20:06;;;;;;;4.80;3.08;;;14.60;79.80;;;;;;2019817;28;20240;-70
2022/03/13 05:21:05;;;;;;;4.25;2.88;;;14.60;82.30;;;;;;2020352;28;20186;-70
2022/03/13 05:22:04;;;;;;;5.03;3.63;;;14.60;81.80;;;;;;2020298;28;20654;-70